Minerva Zen — SVBN3 — position and weather

sailwx.info

Track history (hours):
 
Tides and Currents Weather Stations Pressure Air Temp Water Temp Dewpoint Dewpoint Depression Visibility Wind Speed Wind Dir Waves Ship Positions

Minerva Zen

Last reported at 2017-Mar-27 02:15 UTC. Time now 2017-Mar-27 12:34 UTC.
Position N 34°08' E 033°38'.

Length 183 m; draft 7.3 m.

Type: Ship. MMSI: 241190000.

Date/timePositionNaut miles runAvg speedWind from/ knotsBaromVisibWave heightAir tempDewpointWater temp
2017-Mar-27 02:15N 34°08' E 033°38'0 0.0
2017-Mar-26 22:28N 34°08' E 033°38'1 1.2
2017-Mar-26 21:33N 34°08' E 033°37'5 1.3
2017-Mar-26 17:17N 34°13' E 033°33'1 1.1
2017-Mar-26 16:34N 34°13' E 033°32'1 1.0
2017-Mar-26 15:33N 34°14' E 033°32'1 1.0
2017-Mar-26 14:34N 34°15' E 033°31'1 0.9
2017-Mar-26 13:33N 34°15' E 033°30'1 1.0
2017-Mar-26 12:34N 34°16' E 033°29'1 0.9
2017-Mar-26 11:33N 34°17' E 033°28'2 0.7
2017-Mar-26 09:09N 34°17' E 033°26'0 0.6
2017-Mar-26 08:32N 34°17' E 033°26'1 0.5
2017-Mar-26 07:33N 34°18' E 033°25'0 0.5
2017-Mar-26 06:33N 34°18' E 033°25'0 0.3
2017-Mar-26 05:05N 34°18' E 033°24'1 0.4
2017-Mar-26 03:33N 34°18' E 033°24'0 0.4
2017-Mar-26 02:31N 34°19' E 033°23'1 0.5
2017-Mar-26 01:33N 34°19' E 033°23'1 0.6
2017-Mar-26 00:34N 34°20' E 033°22'1 0.8
2017-Mar-25 23:33N 34°20' E 033°22'1 0.9
2017-Mar-25 22:34N 34°21' E 033°21'1 0.9
2017-Mar-25 21:33N 34°22' E 033°21'1 1.0
2017-Mar-25 20:33N 34°23' E 033°20'1 1.0
2017-Mar-25 19:32N 34°24' E 033°20'1 1.0
2017-Mar-25 18:33N 34°24' E 033°19'1 1.0
2017-Mar-25 17:34N 34°25' E 033°18'3 2.6
2017-Mar-25 16:34N 34°28' E 033°18'2 2.0
2017-Mar-25 15:33N 34°30' E 033°17'3 2.7
2017-Mar-25 14:33N 34°27' E 033°17'0 0.2
2017-Mar-25 13:33N 34°27' E 033°17'0 0.1
2017-Mar-25 12:34N 34°27' E 033°17'1 1.0
2017-Mar-25 11:34N 34°27' E 033°16'4 3.6
2017-Mar-25 10:33N 34°24' E 033°14'2 2.0
2017-Mar-25 09:33N 34°23' E 033°12'1 0.6
2017-Mar-25 08:33N 34°22' E 033°12'1 0.5
2017-Mar-25 07:34N 34°22' E 033°13'0 0.5
2017-Mar-25 06:31N 34°22' E 033°14'0 0.5
2017-Mar-25 05:33N 34°21' E 033°14'0 0.4
2017-Mar-25 04:32N 34°21' E 033°14'0 0.3
2017-Mar-25 03:34N 34°21' E 033°15'0 0.1
2017-Mar-25 01:33N 34°21' E 033°15'0 0.1
2017-Mar-25 00:33N 34°21' E 033°15'0 0.1
2017-Mar-24 23:28N 34°21' E 033°15'1 0.5
2017-Mar-24 22:23N 34°21' E 033°16'1 1.1
2017-Mar-24 21:30N 34°22' E 033°16'3 3.1
2017-Mar-24 20:31N 34°25' E 033°15'4 3.9
2017-Mar-24 19:32N 34°28' E 033°13'3 2.3
2017-Mar-24 18:25N 34°31' E 033°13'0 0.2
2017-Mar-24 16:18N 34°30' E 033°13'0 0.3
2017-Mar-24 15:24N 34°30' E 033°13'0 0.4
2017-Mar-24 14:32N 34°30' E 033°13'1 0.6
2017-Mar-24 13:32N 34°29' E 033°13'1 0.7
2017-Mar-24 12:33N 34°29' E 033°14'1 0.6
2017-Mar-24 11:33N 34°28' E 033°14'1 1.1
2017-Mar-24 10:34N 34°27' E 033°14'3 3.3
2017-Mar-24 09:33N 34°24' E 033°15'4 4.2
2017-Mar-24 08:33N 34°20' E 033°15'1 0.9
2017-Mar-24 07:33N 34°19' E 033°16'5 4.0
2017-Mar-24 06:19N 34°24' E 033°14'4 4.4
2017-Mar-24 05:32N 34°27' E 033°13'4 3.2
2017-Mar-24 04:20N 34°31' E 033°15'1 0.9
2017-Mar-24 03:33N 34°30' E 033°15'1 0.8
2017-Mar-24 02:33N 34°30' E 033°16'1 1.3
2017-Mar-24 01:33N 34°29' E 033°15'10 9.5
2017-Mar-24 00:33N 34°26' E 033°04'1111.1
2017-Mar-23 23:33N 34°23' E 032°51'1211.8
2017-Mar-23 22:33N 34°25' E 032°37'1211.5
2017-Mar-23 21:29N 34°26' E 032°22'36611.8
2017-Mar-22 14:29N 37°28' E 025°49'1212.5
2017-Mar-22 13:34N 37°38' E 025°44'1212.4
2017-Mar-22 12:33N 37°50' E 025°38'13211.9
2017-Mar-22 01:27N 40°01' E 025°60'4210.4
2017-Mar-21 21:24N 40°25' E 026°44'  
Track history (hours):
 
Tides and Currents Weather Stations Pressure Air Temp Water Temp Dewpoint Dewpoint Depression Visibility Wind Speed Wind Dir Waves Ship Positions

Minerva Zen

Last reported at 2017-Mar-27 02:15 UTC. Time now 2017-Mar-27 12:34 UTC.
Position N 34°08' E 033°38'.

Length 183 m; draft 7.3 m.

Type: Ship. MMSI: 241190000.

Date/timePositionNaut miles runAvg speedWind from/ knotsBaromVisibWave heightAir tempDewpointWater temp
2017-Mar-27 02:15N 34°08' E 033°38'0 0.0
2017-Mar-26 22:28N 34°08' E 033°38'1 1.2
2017-Mar-26 21:33N 34°08' E 033°37'5 1.3
2017-Mar-26 17:17N 34°13' E 033°33'1 1.1
2017-Mar-26 16:34N 34°13' E 033°32'1 1.0
2017-Mar-26 15:33N 34°14' E 033°32'1 1.0
2017-Mar-26 14:34N 34°15' E 033°31'1 0.9
2017-Mar-26 13:33N 34°15' E 033°30'1 1.0
2017-Mar-26 12:34N 34°16' E 033°29'1 0.9
2017-Mar-26 11:33N 34°17' E 033°28'2 0.7
2017-Mar-26 09:09N 34°17' E 033°26'0 0.6
2017-Mar-26 08:32N 34°17' E 033°26'1 0.5
2017-Mar-26 07:33N 34°18' E 033°25'0 0.5
2017-Mar-26 06:33N 34°18' E 033°25'0 0.3
2017-Mar-26 05:05N 34°18' E 033°24'1 0.4
2017-Mar-26 03:33N 34°18' E 033°24'0 0.4
2017-Mar-26 02:31N 34°19' E 033°23'1 0.5
2017-Mar-26 01:33N 34°19' E 033°23'1 0.6
2017-Mar-26 00:34N 34°20' E 033°22'1 0.8
2017-Mar-25 23:33N 34°20' E 033°22'1 0.9
2017-Mar-25 22:34N 34°21' E 033°21'1 0.9
2017-Mar-25 21:33N 34°22' E 033°21'1 1.0
2017-Mar-25 20:33N 34°23' E 033°20'1 1.0
2017-Mar-25 19:32N 34°24' E 033°20'1 1.0
2017-Mar-25 18:33N 34°24' E 033°19'1 1.0
2017-Mar-25 17:34N 34°25' E 033°18'3 2.6
2017-Mar-25 16:34N 34°28' E 033°18'2 2.0
2017-Mar-25 15:33N 34°30' E 033°17'3 2.7
2017-Mar-25 14:33N 34°27' E 033°17'0 0.2
2017-Mar-25 13:33N 34°27' E 033°17'0 0.1
2017-Mar-25 12:34N 34°27' E 033°17'1 1.0
2017-Mar-25 11:34N 34°27' E 033°16'4 3.6
2017-Mar-25 10:33N 34°24' E 033°14'2 2.0
2017-Mar-25 09:33N 34°23' E 033°12'1 0.6
2017-Mar-25 08:33N 34°22' E 033°12'1 0.5
2017-Mar-25 07:34N 34°22' E 033°13'0 0.5
2017-Mar-25 06:31N 34°22' E 033°14'0 0.5
2017-Mar-25 05:33N 34°21' E 033°14'0 0.4
2017-Mar-25 04:32N 34°21' E 033°14'0 0.3
2017-Mar-25 03:34N 34°21' E 033°15'0 0.1
2017-Mar-25 01:33N 34°21' E 033°15'0 0.1
2017-Mar-25 00:33N 34°21' E 033°15'0 0.1
2017-Mar-24 23:28N 34°21' E 033°15'1 0.5
2017-Mar-24 22:23N 34°21' E 033°16'1 1.1
2017-Mar-24 21:30N 34°22' E 033°16'3 3.1
2017-Mar-24 20:31N 34°25' E 033°15'4 3.9
2017-Mar-24 19:32N 34°28' E 033°13'3 2.3
2017-Mar-24 18:25N 34°31' E 033°13'0 0.2
2017-Mar-24 16:18N 34°30' E 033°13'0 0.3
2017-Mar-24 15:24N 34°30' E 033°13'0 0.4
2017-Mar-24 14:32N 34°30' E 033°13'1 0.6
2017-Mar-24 13:32N 34°29' E 033°13'1 0.7
2017-Mar-24 12:33N 34°29' E 033°14'1 0.6
2017-Mar-24 11:33N 34°28' E 033°14'1 1.1
2017-Mar-24 10:34N 34°27' E 033°14'3 3.3
2017-Mar-24 09:33N 34°24' E 033°15'4 4.2
2017-Mar-24 08:33N 34°20' E 033°15'1 0.9
2017-Mar-24 07:33N 34°19' E 033°16'5 4.0
2017-Mar-24 06:19N 34°24' E 033°14'4 4.4
2017-Mar-24 05:32N 34°27' E 033°13'4 3.2
2017-Mar-24 04:20N 34°31' E 033°15'1 0.9
2017-Mar-24 03:33N 34°30' E 033°15'1 0.8
2017-Mar-24 02:33N 34°30' E 033°16'1 1.3
2017-Mar-24 01:33N 34°29' E 033°15'10 9.5
2017-Mar-24 00:33N 34°26' E 033°04'1111.1
2017-Mar-23 23:33N 34°23' E 032°51'1211.8
2017-Mar-23 22:33N 34°25' E 032°37'1211.5
2017-Mar-23 21:29N 34°26' E 032°22'36611.8
2017-Mar-22 14:29N 37°28' E 025°49'1212.5
2017-Mar-22 13:34N 37°38' E 025°44'1212.4
2017-Mar-22 12:33N 37°50' E 025°38'13211.9
2017-Mar-22 01:27N 40°01' E 025°60'4210.4
2017-Mar-21 21:24N 40°25' E 026°44'  

Dump ship's entire track history